Windley Key, Florida
Current Conditions -  °F | °C
As of 3:53 AM on Friday 24 Oct 2014 (Local Time) from KMTH Reporting Station
Overcast Overcast  
Wind Chill: 75°   Ceiling: 2500
Heat Index: 75°   Visibility: 10mi
Dew Point: 75°   Wind: 15mph
Humidity: 100%   Direction: 50°NE
Pressure: 29.8"   Gusts: NA
Location:  24.8649°N, 80.7192°W
Report Text: KMTH 240753Z AUTO 05013KT 10SM SCT015 BKN025 OVC090 24/24 A2980 RMK AO2 RAE51 SLP089 P0005 T02390239
Loading
Personal Weather Stations






























Interactive Weather Map
Tropical Storm Tracking
New forecast layout! Learn more

10-Day Weather Forecast

Advertisements
Track Severe Weather on mobile